sensor_id;sensor_type;location;lat;lon;timestamp;P1;durP1;ratioP1;P2;durP2;ratioP2
45618;SDS011;31343;47.520;19.144;2023-02-04T00:01:57;6.65;;;1.92;;
45618;SDS011;31343;47.520;19.144;2023-02-04T00:04:23;8.25;;;1.85;;
45618;SDS011;31343;47.520;19.144;2023-02-04T00:06:48;3.63;;;2.05;;
45618;SDS011;31343;47.520;19.144;2023-02-04T00:09:14;6.18;;;2.42;;
45618;SDS011;31343;47.520;19.144;2023-02-04T00:11:42;3.97;;;2.08;;
45618;SDS011;31343;47.520;19.144;2023-02-04T00:14:09;5.25;;;1.63;;
45618;SDS011;31343;47.520;19.144;2023-02-04T00:16:35;9.50;;;2.60;;
45618;SDS011;31343;47.520;19.144;2023-02-04T00:19:01;7.25;;;2.03;;
45618;SDS011;31343;47.520;19.144;2023-02-04T00:21:27;3.83;;;1.88;;
45618;SDS011;31343;47.520;19.144;2023-02-04T00:23:52;6.35;;;1.70;;
45618;SDS011;31343;47.520;19.144;2023-02-04T00:26:20;7.28;;;1.80;;
45618;SDS011;31343;47.520;19.144;2023-02-04T00:28:46;4.85;;;2.03;;
45618;SDS011;31343;47.520;19.144;2023-02-04T00:31:12;5.53;;;1.95;;
45618;SDS011;31343;47.520;19.144;2023-02-04T00:33:38;6.57;;;2.08;;
45618;SDS011;31343;47.520;19.144;2023-02-04T00:36:03;4.68;;;2.22;;
45618;SDS011;31343;47.520;19.144;2023-02-04T00:38:29;7.57;;;2.05;;
45618;SDS011;31343;47.520;19.144;2023-02-04T00:40:55;5.40;;;2.13;;
45618;SDS011;31343;47.520;19.144;2023-02-04T00:43:21;5.70;;;1.73;;
45618;SDS011;31343;47.520;19.144;2023-02-04T00:45:46;5.57;;;2.70;;
45618;SDS011;31343;47.520;19.144;2023-02-04T00:48:13;7.20;;;1.90;;
45618;SDS011;31343;47.520;19.144;2023-02-04T00:50:38;4.43;;;2.08;;
45618;SDS011;31343;47.520;19.144;2023-02-04T00:53:05;11.40;;;2.70;;
45618;SDS011;31343;47.520;19.144;2023-02-04T00:55:31;5.50;;;1.75;;
45618;SDS011;31343;47.520;19.144;2023-02-04T00:57:56;5.22;;;2.13;;
45618;SDS011;31343;47.520;19.144;2023-02-04T01:00:22;8.27;;;2.00;;
45618;SDS011;31343;47.520;19.144;2023-02-04T01:02:48;5.57;;;1.92;;
45618;SDS011;31343;47.520;19.144;2023-02-04T01:05:14;4.47;;;2.25;;
45618;SDS011;31343;47.520;19.144;2023-02-04T01:07:39;6.35;;;2.42;;
45618;SDS011;31343;47.520;19.144;2023-02-04T01:10:06;4.88;;;2.25;;
45618;SDS011;31343;47.520;19.144;2023-02-04T01:12:32;7.82;;;2.03;;
45618;SDS011;31343;47.520;19.144;2023-02-04T01:14:58;3.92;;;1.95;;
45618;SDS011;31343;47.520;19.144;2023-02-04T01:17:23;4.85;;;1.95;;
45618;SDS011;31343;47.520;19.144;2023-02-04T01:19:49;9.20;;;2.38;;
45618;SDS011;31343;47.520;19.144;2023-02-04T01:22:17;6.65;;;2.13;;
45618;SDS011;31343;47.520;19.144;2023-02-04T01:24:43;3.53;;;2.25;;
45618;SDS011;31343;47.520;19.144;2023-02-04T01:27:08;4.60;;;2.72;;
45618;SDS011;31343;47.520;19.144;2023-02-04T01:29:34;5.80;;;2.03;;
45618;SDS011;31343;47.520;19.144;2023-02-04T01:32:01;4.88;;;1.98;;
45618;SDS011;31343;47.520;19.144;2023-02-04T01:34:27;2.97;;;2.08;;
45618;SDS011;31343;47.520;19.144;2023-02-04T01:36:55;7.20;;;2.88;;
45618;SDS011;31343;47.520;19.144;2023-02-04T01:39:21;4.63;;;2.42;;
45618;SDS011;31343;47.520;19.144;2023-02-04T01:41:48;8.93;;;2.33;;
45618;SDS011;31343;47.520;19.144;2023-02-04T01:44:14;5.82;;;2.38;;
45618;SDS011;31343;47.520;19.144;2023-02-04T01:46:40;4.80;;;2.05;;
45618;SDS011;31343;47.520;19.144;2023-02-04T01:49:06;4.30;;;1.67;;
45618;SDS011;31343;47.520;19.144;2023-02-04T01:51:33;6.72;;;2.22;;
45618;SDS011;31343;47.520;19.144;2023-02-04T01:54:01;6.10;;;2.13;;
45618;SDS011;31343;47.520;19.144;2023-02-04T01:56:28;8.40;;;1.70;;
45618;SDS011;31343;47.520;19.144;2023-02-04T01:58:55;2.72;;;1.65;;
45618;SDS011;31343;47.520;19.144;2023-02-04T02:01:33;3.58;;;1.73;;
45618;SDS011;31343;47.520;19.144;2023-02-04T02:04:10;5.75;;;1.95;;
45618;SDS011;31343;47.520;19.144;2023-02-04T02:06:38;3.90;;;1.80;;
45618;SDS011;31343;47.520;19.144;2023-02-04T02:09:07;5.82;;;2.63;;
45618;SDS011;31343;47.520;19.144;2023-02-04T02:11:33;6.93;;;1.67;;
45618;SDS011;31343;47.520;19.144;2023-02-04T02:13:59;5.28;;;1.67;;
45618;SDS011;31343;47.520;19.144;2023-02-04T02:16:25;4.82;;;1.55;;
45618;SDS011;31343;47.520;19.144;2023-02-04T02:18:51;6.50;;;1.75;;
45618;SDS011;31343;47.520;19.144;2023-02-04T02:22:09;5.70;;;1.60;;
45618;SDS011;31343;47.520;19.144;2023-02-04T02:24:23;4.65;;;1.65;;
45618;SDS011;31343;47.520;19.144;2023-02-04T02:26:50;7.75;;;1.80;;
45618;SDS011;31343;47.520;19.144;2023-02-04T02:29:17;5.03;;;2.00;;
45618;SDS011;31343;47.520;19.144;2023-02-04T02:31:43;5.65;;;1.52;;
45618;SDS011;31343;47.520;19.144;2023-02-04T02:34:09;3.92;;;1.65;;
45618;SDS011;31343;47.520;19.144;2023-02-04T02:36:36;4.68;;;1.50;;
45618;SDS011;31343;47.520;19.144;2023-02-04T02:39:02;4.88;;;2.13;;
45618;SDS011;31343;47.520;19.144;2023-02-04T02:41:27;7.63;;;2.72;;
45618;SDS011;31343;47.520;19.144;2023-02-04T02:43:54;5.53;;;1.88;;
45618;SDS011;31343;47.520;19.144;2023-02-04T02:46:19;3.90;;;1.88;;
45618;SDS011;31343;47.520;19.144;2023-02-04T02:48:45;7.10;;;1.40;;
45618;SDS011;31343;47.520;19.144;2023-02-04T02:51:11;7.03;;;1.60;;
45618;SDS011;31343;47.520;19.144;2023-02-04T02:53:38;4.30;;;2.20;;
45618;SDS011;31343;47.520;19.144;2023-02-04T02:56:04;6.95;;;1.92;;
45618;SDS011;31343;47.520;19.144;2023-02-04T02:58:30;5.18;;;1.55;;
45618;SDS011;31343;47.520;19.144;2023-02-04T03:01:01;4.32;;;1.20;;
45618;SDS011;31343;47.520;19.144;2023-02-04T03:03:30;4.93;;;2.00;;
45618;SDS011;31343;47.520;19.144;2023-02-04T03:06:02;4.78;;;1.58;;
45618;SDS011;31343;47.520;19.144;2023-02-04T03:08:35;3.33;;;1.20;;
45618;SDS011;31343;47.520;19.144;2023-02-04T03:11:01;5.47;;;1.40;;
45618;SDS011;31343;47.520;19.144;2023-02-04T03:13:28;3.25;;;1.27;;
45618;SDS011;31343;47.520;19.144;2023-02-04T03:15:54;6.00;;;2.00;;
45618;SDS011;31343;47.520;19.144;2023-02-04T03:18:21;3.85;;;1.20;;
45618;SDS011;31343;47.520;19.144;2023-02-04T03:20:47;3.40;;;1.67;;
45618;SDS011;31343;47.520;19.144;2023-02-04T03:23:14;5.80;;;1.58;;
45618;SDS011;31343;47.520;19.144;2023-02-04T03:25:40;3.63;;;1.60;;
45618;SDS011;31343;47.520;19.144;2023-02-04T03:28:06;8.23;;;2.28;;
45618;SDS011;31343;47.520;19.144;2023-02-04T03:30:33;4.72;;;1.67;;
45618;SDS011;31343;47.520;19.144;2023-02-04T03:32:58;3.47;;;1.27;;
45618;SDS011;31343;47.520;19.144;2023-02-04T03:35:24;5.13;;;2.08;;
45618;SDS011;31343;47.520;19.144;2023-02-04T03:37:51;4.53;;;1.67;;
45618;SDS011;31343;47.520;19.144;2023-02-04T03:40:17;3.92;;;1.63;;
45618;SDS011;31343;47.520;19.144;2023-02-04T03:42:42;5.95;;;1.42;;
45618;SDS011;31343;47.520;19.144;2023-02-04T03:45:09;5.25;;;1.52;;
45618;SDS011;31343;47.520;19.144;2023-02-04T03:47:35;3.75;;;1.67;;
45618;SDS011;31343;47.520;19.144;2023-02-04T03:50:02;8.27;;;1.60;;
45618;SDS011;31343;47.520;19.144;2023-02-04T03:52:29;4.32;;;1.88;;
45618;SDS011;31343;47.520;19.144;2023-02-04T03:54:55;6.50;;;1.73;;
45618;SDS011;31343;47.520;19.144;2023-02-04T03:57:21;5.80;;;1.20;;
45618;SDS011;31343;47.520;19.144;2023-02-04T03:59:47;6.93;;;1.77;;
45618;SDS011;31343;47.520;19.144;2023-02-04T04:02:12;7.18;;;1.50;;
45618;SDS011;31343;47.520;19.144;2023-02-04T04:04:38;3.55;;;2.00;;
45618;SDS011;31343;47.520;19.144;2023-02-04T04:07:04;5.00;;;1.23;;
45618;SDS011;31343;47.520;19.144;2023-02-04T04:09:31;5.35;;;1.98;;
45618;SDS011;31343;47.520;19.144;2023-02-04T04:11:57;4.35;;;1.63;;
45618;SDS011;31343;47.520;19.144;2023-02-04T04:14:23;4.50;;;1.38;;
45618;SDS011;31343;47.520;19.144;2023-02-04T04:16:50;3.47;;;1.40;;
45618;SDS011;31343;47.520;19.144;2023-02-04T04:19:15;6.97;;;2.03;;
45618;SDS011;31343;47.520;19.144;2023-02-04T04:21:41;3.47;;;1.58;;
45618;SDS011;31343;47.520;19.144;2023-02-04T04:24:07;3.08;;;1.30;;
45618;SDS011;31343;47.520;19.144;2023-02-04T04:26:32;5.38;;;1.63;;
45618;SDS011;31343;47.520;19.144;2023-02-04T04:28:58;5.10;;;1.38;;
45618;SDS011;31343;47.520;19.144;2023-02-04T04:31:24;6.53;;;1.58;;
45618;SDS011;31343;47.520;19.144;2023-02-04T04:33:50;6.22;;;1.27;;
45618;SDS011;31343;47.520;19.144;2023-02-04T04:36:15;5.03;;;1.50;;
45618;SDS011;31343;47.520;19.144;2023-02-04T04:38:41;4.97;;;1.17;;
45618;SDS011;31343;47.520;19.144;2023-02-04T04:41:07;3.22;;;1.10;;
45618;SDS011;31343;47.520;19.144;2023-02-04T04:43:32;4.88;;;0.90;;
45618;SDS011;31343;47.520;19.144;2023-02-04T04:45:58;5.53;;;1.40;;
45618;SDS011;31343;47.520;19.144;2023-02-04T04:48:24;2.95;;;1.13;;
45618;SDS011;31343;47.520;19.144;2023-02-04T04:50:49;1.95;;;1.00;;
45618;SDS011;31343;47.520;19.144;2023-02-04T04:53:15;4.50;;;1.25;;
45618;SDS011;31343;47.520;19.144;2023-02-04T04:55:41;7.18;;;1.20;;
45618;SDS011;31343;47.520;19.144;2023-02-04T04:58:07;5.03;;;1.50;;
45618;SDS011;31343;47.520;19.144;2023-02-04T05:00:33;3.40;;;1.23;;
45618;SDS011;31343;47.520;19.144;2023-02-04T05:02:58;4.72;;;1.25;;
45618;SDS011;31343;47.520;19.144;2023-02-04T05:05:26;3.88;;;2.13;;
45618;SDS011;31343;47.520;19.144;2023-02-04T05:07:51;2.92;;;0.93;;
45618;SDS011;31343;47.520;19.144;2023-02-04T05:10:21;3.90;;;1.00;;
45618;SDS011;31343;47.520;19.144;2023-02-04T05:12:47;4.82;;;1.80;;
45618;SDS011;31343;47.520;19.144;2023-02-04T05:15:12;3.03;;;1.27;;
45618;SDS011;31343;47.520;19.144;2023-02-04T05:17:38;5.28;;;1.10;;
45618;SDS011;31343;47.520;19.144;2023-02-04T05:20:04;5.25;;;1.38;;
45618;SDS011;31343;47.520;19.144;2023-02-04T05:22:30;4.57;;;1.20;;
45618;SDS011;31343;47.520;19.144;2023-02-04T05:24:56;6.80;;;1.08;;
45618;SDS011;31343;47.520;19.144;2023-02-04T05:27:21;2.58;;;1.08;;
45618;SDS011;31343;47.520;19.144;2023-02-04T05:29:47;2.83;;;1.17;;
45618;SDS011;31343;47.520;19.144;2023-02-04T05:32:13;2.47;;;1.27;;
45618;SDS011;31343;47.520;19.144;2023-02-04T05:34:39;4.43;;;0.95;;
45618;SDS011;31343;47.520;19.144;2023-02-04T05:37:04;5.78;;;1.10;;
45618;SDS011;31343;47.520;19.144;2023-02-04T05:39:30;1.75;;;1.23;;
45618;SDS011;31343;47.520;19.144;2023-02-04T05:41:55;3.08;;;1.55;;
45618;SDS011;31343;47.520;19.144;2023-02-04T05:44:21;4.18;;;1.08;;
45618;SDS011;31343;47.520;19.144;2023-02-04T05:46:47;2.38;;;0.90;;
45618;SDS011;31343;47.520;19.144;2023-02-04T05:49:13;1.98;;;0.80;;
45618;SDS011;31343;47.520;19.144;2023-02-04T05:51:38;3.55;;;0.93;;
45618;SDS011;31343;47.520;19.144;2023-02-04T05:54:04;6.65;;;1.13;;
45618;SDS011;31343;47.520;19.144;2023-02-04T05:56:30;2.28;;;0.88;;
45618;SDS011;31343;47.520;19.144;2023-02-04T05:58:56;3.05;;;0.85;;
45618;SDS011;31343;47.520;19.144;2023-02-04T06:01:22;2.60;;;0.98;;
45618;SDS011;31343;47.520;19.144;2023-02-04T06:03:47;2.00;;;0.90;;
45618;SDS011;31343;47.520;19.144;2023-02-04T06:06:13;1.65;;;0.95;;
45618;SDS011;31343;47.520;19.144;2023-02-04T06:08:39;1.20;;;0.65;;
45618;SDS011;31343;47.520;19.144;2023-02-04T06:11:05;1.40;;;0.80;;
45618;SDS011;31343;47.520;19.144;2023-02-04T06:13:30;2.08;;;0.80;;
45618;SDS011;31343;47.520;19.144;2023-02-04T06:15:56;1.05;;;0.70;;
45618;SDS011;31343;47.520;19.144;2023-02-04T06:18:22;1.83;;;0.80;;
45618;SDS011;31343;47.520;19.144;2023-02-04T06:20:47;1.65;;;0.70;;
45618;SDS011;31343;47.520;19.144;2023-02-04T06:23:13;2.67;;;0.88;;
45618;SDS011;31343;47.520;19.144;2023-02-04T06:25:39;1.27;;;0.60;;
45618;SDS011;31343;47.520;19.144;2023-02-04T06:28:04;2.13;;;0.70;;
45618;SDS011;31343;47.520;19.144;2023-02-04T06:30:30;0.98;;;0.63;;
45618;SDS011;31343;47.520;19.144;2023-02-04T06:32:56;1.30;;;0.70;;
45618;SDS011;31343;47.520;19.144;2023-02-04T06:35:22;0.93;;;0.70;;
45618;SDS011;31343;47.520;19.144;2023-02-04T06:37:47;0.65;;;0.50;;
45618;SDS011;31343;47.520;19.144;2023-02-04T06:40:14;1.45;;;0.70;;
45618;SDS011;31343;47.520;19.144;2023-02-04T06:42:40;1.00;;;0.70;;
45618;SDS011;31343;47.520;19.144;2023-02-04T06:45:06;0.75;;;0.57;;
45618;SDS011;31343;47.520;19.144;2023-02-04T06:47:32;1.35;;;0.70;;
45618;SDS011;31343;47.520;19.144;2023-02-04T06:49:59;2.33;;;0.70;;
45618;SDS011;31343;47.520;19.144;2023-02-04T06:52:24;0.55;;;0.40;;
45618;SDS011;31343;47.520;19.144;2023-02-04T06:54:51;1.65;;;0.80;;
45618;SDS011;31343;47.520;19.144;2023-02-04T06:57:17;1.33;;;0.90;;
45618;SDS011;31343;47.520;19.144;2023-02-04T06:59:44;0.65;;;0.55;;
45618;SDS011;31343;47.520;19.144;2023-02-04T07:02:11;1.15;;;0.63;;
45618;SDS011;31343;47.520;19.144;2023-02-04T07:04:36;1.55;;;0.80;;
45618;SDS011;31343;47.520;19.144;2023-02-04T07:07:02;1.77;;;0.80;;
45618;SDS011;31343;47.520;19.144;2023-02-04T07:09:28;1.38;;;0.80;;
45618;SDS011;31343;47.520;19.144;2023-02-04T07:11:54;2.00;;;0.73;;
45618;SDS011;31343;47.520;19.144;2023-02-04T07:14:21;1.50;;;1.00;;
45618;SDS011;31343;47.520;19.144;2023-02-04T07:16:48;1.60;;;1.00;;
45618;SDS011;31343;47.520;19.144;2023-02-04T07:19:14;2.17;;;1.13;;
45618;SDS011;31343;47.520;19.144;2023-02-04T07:21:39;2.28;;;1.30;;
45618;SDS011;31343;47.520;19.144;2023-02-04T07:24:05;1.30;;;0.90;;
45618;SDS011;31343;47.520;19.144;2023-02-04T07:26:32;2.75;;;1.05;;
45618;SDS011;31343;47.520;19.144;2023-02-04T07:28:58;2.08;;;1.27;;
45618;SDS011;31343;47.520;19.144;2023-02-04T07:31:24;1.65;;;0.90;;
45618;SDS011;31343;47.520;19.144;2023-02-04T07:33:49;2.25;;;1.05;;
45618;SDS011;31343;47.520;19.144;2023-02-04T07:36:15;2.10;;;0.93;;
45618;SDS011;31343;47.520;19.144;2023-02-04T07:38:41;2.40;;;1.63;;
45618;SDS011;31343;47.520;19.144;2023-02-04T07:41:07;3.28;;;1.40;;
45618;SDS011;31343;47.520;19.144;2023-02-04T07:43:32;2.30;;;1.23;;
45618;SDS011;31343;47.520;19.144;2023-02-04T07:45:58;2.38;;;1.38;;
45618;SDS011;31343;47.520;19.144;2023-02-04T07:48:24;2.72;;;1.55;;
45618;SDS011;31343;47.520;19.144;2023-02-04T07:50:49;2.40;;;1.60;;
45618;SDS011;31343;47.520;19.144;2023-02-04T07:53:15;4.35;;;2.55;;
45618;SDS011;31343;47.520;19.144;2023-02-04T07:55:41;2.85;;;1.50;;
45618;SDS011;31343;47.520;19.144;2023-02-04T07:58:07;3.65;;;2.08;;
45618;SDS011;31343;47.520;19.144;2023-02-04T08:00:33;3.55;;;2.03;;
45618;SDS011;31343;47.520;19.144;2023-02-04T08:02:59;3.97;;;1.98;;
45618;SDS011;31343;47.520;19.144;2023-02-04T08:05:24;3.95;;;1.92;;
45618;SDS011;31343;47.520;19.144;2023-02-04T08:07:50;3.17;;;1.77;;
45618;SDS011;31343;47.520;19.144;2023-02-04T08:10:16;3.42;;;2.35;;
45618;SDS011;31343;47.520;19.144;2023-02-04T08:12:41;3.20;;;2.15;;
45618;SDS011;31343;47.520;19.144;2023-02-04T08:15:07;4.32;;;2.10;;
45618;SDS011;31343;47.520;19.144;2023-02-04T08:17:33;3.30;;;1.98;;
45618;SDS011;31343;47.520;19.144;2023-02-04T08:20:00;5.32;;;2.67;;
45618;SDS011;31343;47.520;19.144;2023-02-04T08:22:25;6.47;;;2.95;;
45618;SDS011;31343;47.520;19.144;2023-02-04T08:24:51;3.97;;;2.45;;
45618;SDS011;31343;47.520;19.144;2023-02-04T08:27:17;4.45;;;2.50;;
45618;SDS011;31343;47.520;19.144;2023-02-04T08:29:42;4.22;;;2.50;;
45618;SDS011;31343;47.520;19.144;2023-02-04T08:32:08;3.22;;;2.20;;
45618;SDS011;31343;47.520;19.144;2023-02-04T08:34:34;3.80;;;2.33;;
45618;SDS011;31343;47.520;19.144;2023-02-04T08:37:00;4.05;;;2.45;;
45618;SDS011;31343;47.520;19.144;2023-02-04T08:39:26;6.05;;;3.33;;
45618;SDS011;31343;47.520;19.144;2023-02-04T08:41:53;4.68;;;2.35;;
45618;SDS011;31343;47.520;19.144;2023-02-04T08:44:19;6.53;;;2.72;;
45618;SDS011;31343;47.520;19.144;2023-02-04T08:46:45;4.47;;;2.50;;
45618;SDS011;31343;47.520;19.144;2023-02-04T08:49:10;5.03;;;2.38;;
45618;SDS011;31343;47.520;19.144;2023-02-04T08:51:36;5.50;;;2.50;;
45618;SDS011;31343;47.520;19.144;2023-02-04T08:54:03;4.22;;;2.20;;
45618;SDS011;31343;47.520;19.144;2023-02-04T08:56:28;4.05;;;2.08;;
45618;SDS011;31343;47.520;19.144;2023-02-04T08:58:56;4.30;;;2.00;;
45618;SDS011;31343;47.520;19.144;2023-02-04T09:01:21;3.92;;;2.22;;
45618;SDS011;31343;47.520;19.144;2023-02-04T09:03:47;3.67;;;2.17;;
45618;SDS011;31343;47.520;19.144;2023-02-04T09:06:13;4.40;;;2.15;;
45618;SDS011;31343;47.520;19.144;2023-02-04T09:08:39;7.78;;;2.35;;
45618;SDS011;31343;47.520;19.144;2023-02-04T09:11:04;4.60;;;2.20;;
45618;SDS011;31343;47.520;19.144;2023-02-04T09:13:30;4.93;;;2.65;;
45618;SDS011;31343;47.520;19.144;2023-02-04T09:15:57;4.53;;;2.30;;
45618;SDS011;31343;47.520;19.144;2023-02-04T09:18:23;5.13;;;2.60;;
45618;SDS011;31343;47.520;19.144;2023-02-04T09:20:50;4.90;;;2.08;;
45618;SDS011;31343;47.520;19.144;2023-02-04T09:23:16;3.80;;;1.85;;
45618;SDS011;31343;47.520;19.144;2023-02-04T09:25:43;2.78;;;1.88;;
45618;SDS011;31343;47.520;19.144;2023-02-04T09:28:10;4.55;;;2.00;;
45618;SDS011;31343;47.520;19.144;2023-02-04T09:30:38;4.45;;;1.60;;
45618;SDS011;31343;47.520;19.144;2023-02-04T09:33:04;2.78;;;1.48;;
45618;SDS011;31343;47.520;19.144;2023-02-04T09:35:30;3.63;;;1.80;;
45618;SDS011;31343;47.520;19.144;2023-02-04T09:37:59;2.80;;;2.13;;
45618;SDS011;31343;47.520;19.144;2023-02-04T09:40:28;3.35;;;1.88;;
45618;SDS011;31343;47.520;19.144;2023-02-04T09:43:02;3.55;;;1.75;;
45618;SDS011;31343;47.520;19.144;2023-02-04T09:45:31;3.05;;;1.40;;
45618;SDS011;31343;47.520;19.144;2023-02-04T09:48:00;2.88;;;1.50;;
45618;SDS011;31343;47.520;19.144;2023-02-04T09:50:28;2.92;;;1.67;;
45618;SDS011;31343;47.520;19.144;2023-02-04T09:52:56;2.67;;;1.63;;
45618;SDS011;31343;47.520;19.144;2023-02-04T09:55:37;4.07;;;1.50;;
45618;SDS011;31343;47.520;19.144;2023-02-04T09:58:16;3.25;;;1.65;;
45618;SDS011;31343;47.520;19.144;2023-02-04T10:00:46;2.45;;;1.60;;
45618;SDS011;31343;47.520;19.144;2023-02-04T10:03:17;2.35;;;1.02;;
45618;SDS011;31343;47.520;19.144;2023-02-04T10:05:45;2.53;;;1.25;;
45618;SDS011;31343;47.520;19.144;2023-02-04T10:08:16;4.25;;;1.75;;
45618;SDS011;31343;47.520;19.144;2023-02-04T10:10:44;2.55;;;1.52;;
45618;SDS011;31343;47.520;19.144;2023-02-04T10:13:16;3.88;;;1.60;;
45618;SDS011;31343;47.520;19.144;2023-02-04T10:15:45;2.85;;;1.55;;
45618;SDS011;31343;47.520;19.144;2023-02-04T10:18:18;2.90;;;1.40;;
45618;SDS011;31343;47.520;19.144;2023-02-04T10:20:51;3.10;;;1.35;;
45618;SDS011;31343;47.520;19.144;2023-02-04T10:23:24;2.50;;;1.30;;
45618;SDS011;31343;47.520;19.144;2023-02-04T10:25:51;2.22;;;1.40;;
45618;SDS011;31343;47.520;19.144;2023-02-04T10:28:16;2.33;;;1.10;;
45618;SDS011;31343;47.520;19.144;2023-02-04T10:30:42;1.85;;;1.15;;
45618;SDS011;31343;47.520;19.144;2023-02-04T10:33:15;3.40;;;1.40;;
45618;SDS011;31343;47.520;19.144;2023-02-04T10:35:51;2.15;;;1.40;;
45618;SDS011;31343;47.520;19.144;2023-02-04T10:38:19;2.25;;;1.13;;
45618;SDS011;31343;47.520;19.144;2023-02-04T10:40:45;2.75;;;1.10;;
45618;SDS011;31343;47.520;19.144;2023-02-04T10:43:19;2.00;;;1.40;;
45618;SDS011;31343;47.520;19.144;2023-02-04T10:45:56;2.13;;;1.02;;
45618;SDS011;31343;47.520;19.144;2023-02-04T10:48:24;2.90;;;1.50;;
45618;SDS011;31343;47.520;19.144;2023-02-04T10:50:51;2.67;;;1.13;;
45618;SDS011;31343;47.520;19.144;2023-02-04T10:53:19;2.13;;;1.00;;
45618;SDS011;31343;47.520;19.144;2023-02-04T10:56:25;2.20;;;1.10;;
45618;SDS011;31343;47.520;19.144;2023-02-04T10:58:50;1.75;;;1.00;;
45618;SDS011;31343;47.520;19.144;2023-02-04T11:01:16;2.13;;;1.00;;
45618;SDS011;31343;47.520;19.144;2023-02-04T11:03:42;2.67;;;1.40;;
45618;SDS011;31343;47.520;19.144;2023-02-04T11:06:14;2.33;;;1.30;;
45618;SDS011;31343;47.520;19.144;2023-02-04T11:08:45;2.10;;;1.20;;
45618;SDS011;31343;47.520;19.144;2023-02-04T11:11:18;1.50;;;0.82;;
45618;SDS011;31343;47.520;19.144;2023-02-04T11:16:25;3.50;;;1.48;;
45618;SDS011;31343;47.520;19.144;2023-02-04T11:19:09;2.00;;;1.10;;
45618;SDS011;31343;47.520;19.144;2023-02-04T11:24:19;1.65;;;1.05;;
45618;SDS011;31343;47.520;19.144;2023-02-04T11:26:48;2.42;;;1.10;;
45618;SDS011;31343;47.520;19.144;2023-02-04T11:29:27;2.50;;;1.17;;
45618;SDS011;31343;47.520;19.144;2023-02-04T11:32:00;2.97;;;1.58;;
45618;SDS011;31343;47.520;19.144;2023-02-04T11:34:48;2.53;;;1.25;;
45618;SDS011;31343;47.520;19.144;2023-02-04T11:37:26;2.08;;;0.93;;
45618;SDS011;31343;47.520;19.144;2023-02-04T11:39:59;1.67;;;0.98;;
45618;SDS011;31343;47.520;19.144;2023-02-04T11:42:46;1.42;;;0.98;;
45618;SDS011;31343;47.520;19.144;2023-02-04T11:45:12;1.65;;;1.00;;
45618;SDS011;31343;47.520;19.144;2023-02-04T11:47:39;2.63;;;1.20;;
45618;SDS011;31343;47.520;19.144;2023-02-04T11:52:53;1.92;;;1.00;;
45618;SDS011;31343;47.520;19.144;2023-02-04T11:55:19;1.52;;;1.00;;
45618;SDS011;31343;47.520;19.144;2023-02-04T11:57:45;3.40;;;1.00;;
45618;SDS011;31343;47.520;19.144;2023-02-04T12:00:17;3.83;;;0.90;;
45618;SDS011;31343;47.520;19.144;2023-02-04T12:02:48;3.38;;;1.10;;
45618;SDS011;31343;47.520;19.144;2023-02-04T12:05:18;3.08;;;1.58;;
45618;SDS011;31343;47.520;19.144;2023-02-04T12:07:44;3.03;;;1.05;;
45618;SDS011;31343;47.520;19.144;2023-02-04T12:15:20;1.70;;;0.80;;
45618;SDS011;31343;47.520;19.144;2023-02-04T12:18:00;2.50;;;0.98;;
45618;SDS011;31343;47.520;19.144;2023-02-04T12:20:27;1.75;;;0.90;;
45618;SDS011;31343;47.520;19.144;2023-02-04T12:22:53;2.08;;;0.98;;
45618;SDS011;31343;47.520;19.144;2023-02-04T12:25:18;2.00;;;0.80;;
45618;SDS011;31343;47.520;19.144;2023-02-04T12:27:44;1.38;;;0.85;;
45618;SDS011;31343;47.520;19.144;2023-02-04T12:30:10;1.75;;;0.80;;
45618;SDS011;31343;47.520;19.144;2023-02-04T12:32:36;2.92;;;1.10;;
45618;SDS011;31343;47.520;19.144;2023-02-04T12:35:02;1.27;;;0.73;;
45618;SDS011;31343;47.520;19.144;2023-02-04T12:37:28;1.88;;;0.80;;
45618;SDS011;31343;47.520;19.144;2023-02-04T12:39:54;2.33;;;0.93;;
45618;SDS011;31343;47.520;19.144;2023-02-04T12:42:21;2.17;;;1.00;;
45618;SDS011;31343;47.520;19.144;2023-02-04T12:44:47;2.65;;;1.20;;
45618;SDS011;31343;47.520;19.144;2023-02-04T12:47:12;1.83;;;0.85;;
45618;SDS011;31343;47.520;19.144;2023-02-04T12:49:38;1.17;;;0.80;;
45618;SDS011;31343;47.520;19.144;2023-02-04T12:52:04;1.95;;;0.90;;
45618;SDS011;31343;47.520;19.144;2023-02-04T12:54:30;1.13;;;0.70;;
45618;SDS011;31343;47.520;19.144;2023-02-04T12:56:55;1.67;;;0.80;;
45618;SDS011;31343;47.520;19.144;2023-02-04T12:59:26;1.70;;;1.08;;
45618;SDS011;31343;47.520;19.144;2023-02-04T13:01:52;2.05;;;1.00;;
45618;SDS011;31343;47.520;19.144;2023-02-04T13:04:18;3.38;;;1.23;;
45618;SDS011;31343;47.520;19.144;2023-02-04T13:06:44;3.22;;;1.40;;
45618;SDS011;31343;47.520;19.144;2023-02-04T13:09:10;3.08;;;1.40;;
45618;SDS011;31343;47.520;19.144;2023-02-04T13:11:35;1.95;;;1.13;;
45618;SDS011;31343;47.520;19.144;2023-02-04T13:14:01;2.88;;;1.33;;
45618;SDS011;31343;47.520;19.144;2023-02-04T13:16:27;2.47;;;1.00;;
45618;SDS011;31343;47.520;19.144;2023-02-04T13:18:52;2.20;;;1.25;;
45618;SDS011;31343;47.520;19.144;2023-02-04T13:21:18;1.85;;;1.20;;
45618;SDS011;31343;47.520;19.144;2023-02-04T13:23:44;1.52;;;0.90;;
45618;SDS011;31343;47.520;19.144;2023-02-04T13:26:10;2.17;;;1.13;;
45618;SDS011;31343;47.520;19.144;2023-02-04T13:28:36;2.83;;;1.20;;
45618;SDS011;31343;47.520;19.144;2023-02-04T13:31:02;1.30;;;0.80;;
45618;SDS011;31343;47.520;19.144;2023-02-04T13:33:27;2.38;;;1.00;;
45618;SDS011;31343;47.520;19.144;2023-02-04T13:35:53;4.00;;;1.38;;
45618;SDS011;31343;47.520;19.144;2023-02-04T13:38:19;2.63;;;1.20;;
45618;SDS011;31343;47.520;19.144;2023-02-04T13:40:45;2.28;;;1.02;;
45618;SDS011;31343;47.520;19.144;2023-02-04T13:43:10;1.85;;;1.10;;
45618;SDS011;31343;47.520;19.144;2023-02-04T13:45:36;3.10;;;1.30;;
45618;SDS011;31343;47.520;19.144;2023-02-04T13:48:02;2.22;;;1.20;;
45618;SDS011;31343;47.520;19.144;2023-02-04T13:50:28;2.63;;;1.20;;
45618;SDS011;31343;47.520;19.144;2023-02-04T13:52:54;2.38;;;1.20;;
45618;SDS011;31343;47.520;19.144;2023-02-04T13:55:19;2.08;;;1.30;;
45618;SDS011;31343;47.520;19.144;2023-02-04T13:57:45;2.47;;;1.17;;
45618;SDS011;31343;47.520;19.144;2023-02-04T14:00:11;1.80;;;1.05;;
45618;SDS011;31343;47.520;19.144;2023-02-04T14:02:37;2.85;;;1.30;;
45618;SDS011;31343;47.520;19.144;2023-02-04T14:05:03;2.95;;;1.60;;
45618;SDS011;31343;47.520;19.144;2023-02-04T14:07:29;4.10;;;1.40;;
45618;SDS011;31343;47.520;19.144;2023-02-04T14:09:57;3.92;;;1.42;;
45618;SDS011;31343;47.520;19.144;2023-02-04T14:12:23;2.90;;;1.27;;
45618;SDS011;31343;47.520;19.144;2023-02-04T14:14:49;2.20;;;1.48;;
45618;SDS011;31343;47.520;19.144;2023-02-04T14:17:15;2.67;;;1.27;;
45618;SDS011;31343;47.520;19.144;2023-02-04T14:19:41;4.75;;;2.08;;
45618;SDS011;31343;47.520;19.144;2023-02-04T14:22:07;5.15;;;1.83;;
45618;SDS011;31343;47.520;19.144;2023-02-04T14:24:35;2.58;;;1.42;;
45618;SDS011;31343;47.520;19.144;2023-02-04T14:27:00;5.45;;;2.05;;
45618;SDS011;31343;47.520;19.144;2023-02-04T14:29:31;4.22;;;1.65;;
45618;SDS011;31343;47.520;19.144;2023-02-04T14:31:57;3.65;;;1.73;;
45618;SDS011;31343;47.520;19.144;2023-02-04T14:34:22;4.20;;;2.40;;
45618;SDS011;31343;47.520;19.144;2023-02-04T14:36:48;2.72;;;1.60;;
45618;SDS011;31343;47.520;19.144;2023-02-04T14:39:14;3.72;;;2.53;;
45618;SDS011;31343;47.520;19.144;2023-02-04T14:41:40;3.17;;;1.58;;
45618;SDS011;31343;47.520;19.144;2023-02-04T14:44:05;4.25;;;1.73;;
45618;SDS011;31343;47.520;19.144;2023-02-04T14:46:31;3.78;;;1.60;;